Time;durP1;ratioP1;P1;durP2;ratioP2;P2;SDS_P1;SDS_P2;PMS_P1;PMS_P2;Temp;Humidity;BMP_temperature;BMP_pressure;BME280_temperature;BME280_humidity;BME280_pressure;Samples;Min_cycle;Max_cycle;Signal;HPM_P1;HPM_P2
2022/12/29 00:01:31;;;;;;;2.72;2.10;;;11.20;99.90;;;;;;5116142;27;20454;-58
2022/12/29 00:03:56;;;;;;;2.58;2.00;;;11.10;99.90;;;;;;5115882;28;20649;-59
2022/12/29 00:06:22;;;;;;;3.47;1.90;;;11.20;99.90;;;;;;5115900;28;20341;-58
2022/12/29 00:08:47;;;;;;;1.75;1.65;;;11.20;99.90;;;;;;5115838;28;20626;-59
2022/12/29 00:11:19;;;;;;;2.42;1.85;;;11.30;99.90;;;;;;5115744;28;20169;-58
2022/12/29 00:16:31;;;;;;;1.75;1.65;;;11.30;99.90;;;;;;5115971;28;20580;-58
2022/12/29 00:19:00;;;;;;;2.83;1.67;;;11.40;99.90;;;;;;5115604;28;20184;-59
2022/12/29 00:35:25;;;;;;;1.88;1.30;;;11.40;99.90;;;;;;5115372;28;20255;-58
2022/12/29 00:46:12;;;;;;;1.63;0.90;;;11.40;99.90;;;;;;5115126;28;20184;-58
2022/12/29 00:51:23;;;;;;;1.95;1.27;;;11.40;99.90;;;;;;5115361;28;20187;-58
2022/12/29 00:53:49;;;;;;;2.90;1.10;;;11.50;99.90;;;;;;5114627;28;20207;-58
2022/12/29 00:56:14;;;;;;;2.88;1.50;;;11.60;99.90;;;;;;5114856;28;20253;-58
2022/12/29 00:58:40;;;;;;;3.22;1.48;;;11.50;99.90;;;;;;5113567;28;20182;-58
2022/12/29 01:01:07;;;;;;;3.28;1.00;;;11.40;99.90;;;;;;5114725;28;20180;-58
2022/12/29 01:03:34;;;;;;;4.30;1.10;;;11.40;99.90;;;;;;5114905;28;20507;-58
2022/12/29 01:06:01;;;;;;;3.50;1.10;;;11.50;99.90;;;;;;5114949;28;20184;-58
2022/12/29 01:08:28;;;;;;;1.40;0.90;;;11.50;99.90;;;;;;5114779;28;20649;-59
2022/12/29 01:11:02;;;;;;;3.13;1.10;;;11.50;99.90;;;;;;5114803;28;20180;-58
2022/12/29 01:13:27;;;;;;;2.80;1.10;;;11.50;99.90;;;;;;5114648;28;20173;-58
2022/12/29 01:15:54;;;;;;;4.28;1.10;;;11.40;99.90;;;;;;5114437;28;20280;-58
2022/12/29 01:18:20;;;;;;;1.80;0.90;;;11.40;99.90;;;;;;5114619;28;20173;-58
2022/12/29 01:20:49;;;;;;;2.40;1.20;;;11.40;99.90;;;;;;5114525;28;20512;-59
2022/12/29 01:23:15;;;;;;;3.63;1.23;;;11.50;99.90;;;;;;5114362;28;20174;-58
2022/12/29 01:25:40;;;;;;;5.18;1.50;;;11.50;99.90;;;;;;5114491;28;20264;-58
2022/12/29 01:28:08;;;;;;;4.63;1.38;;;11.50;99.90;;;;;;5114208;28;20169;-58
2022/12/29 01:30:34;;;;;;;3.50;1.25;;;11.60;99.90;;;;;;5114135;28;20526;-59
2022/12/29 01:33:00;;;;;;;5.22;1.40;;;11.60;99.90;;;;;;5114268;28;20180;-58
2022/12/29 01:35:27;;;;;;;4.95;1.40;;;11.60;99.90;;;;;;5114215;28;20197;-58
2022/12/29 01:37:55;;;;;;;5.10;1.42;;;11.50;99.90;;;;;;5114172;28;20188;-58
2022/12/29 01:40:21;;;;;;;2.78;1.40;;;11.50;99.90;;;;;;5114097;28;20181;-59
2022/12/29 01:42:46;;;;;;;3.83;1.42;;;11.60;99.90;;;;;;5113681;28;20184;-58
2022/12/29 01:45:17;;;;;;;2.83;1.20;;;11.50;99.90;;;;;;5114257;28;20181;-58
2022/12/29 01:47:47;;;;;;;1.70;1.30;;;11.60;99.90;;;;;;5112921;28;20185;-58
2022/12/29 01:50:37;;;;;;;3.20;1.20;;;11.50;99.90;;;;;;5114066;28;20172;-59
2022/12/29 01:53:27;;;;;;;4.88;1.50;;;11.60;99.90;;;;;;5114009;28;20177;-58
2022/12/29 01:55:57;;;;;;;4.68;1.40;;;11.60;99.90;;;;;;5113977;28;20208;-58
2022/12/29 01:58:28;;;;;;;3.33;1.27;;;11.50;99.90;;;;;;5113997;28;20173;-59
2022/12/29 02:00:54;;;;;;;3.72;1.30;;;11.40;99.90;;;;;;5113847;28;20166;-59
2022/12/29 02:03:22;;;;;;;3.20;1.27;;;11.40;99.90;;;;;;5113785;28;20226;-59
2022/12/29 02:06:06;;;;;;;3.65;1.40;;;11.40;99.90;;;;;;5112912;28;20173;-59
2022/12/29 02:08:32;;;;;;;1.88;1.13;;;11.30;99.90;;;;;;5113877;28;20218;-59
2022/12/29 02:11:00;;;;;;;5.15;1.40;;;11.30;99.90;;;;;;5113848;28;20178;-59
2022/12/29 02:13:27;;;;;;;5.50;1.35;;;11.40;99.90;;;;;;5113707;28;20173;-59
2022/12/29 02:16:25;;;;;;;3.00;1.30;;;11.30;99.90;;;;;;5113540;28;20197;-58
2022/12/29 02:19:12;;;;;;;4.90;1.50;;;11.20;99.90;;;;;;5113904;28;20201;-59
2022/12/29 02:21:59;;;;;;;2.45;1.33;;;11.20;99.90;;;;;;5113721;28;20627;-59
2022/12/29 02:24:48;;;;;;;2.90;1.30;;;11.30;99.90;;;;;;5113643;28;20169;-59
2022/12/29 02:27:19;;;;;;;2.58;1.00;;;11.20;99.90;;;;;;5113493;28;20184;-59
2022/12/29 02:29:45;;;;;;;2.70;1.20;;;11.10;99.90;;;;;;5113602;28;20173;-60
2022/12/29 02:32:37;;;;;;;2.88;1.17;;;11.20;99.90;;;;;;5113540;28;20196;-59
2022/12/29 02:35:14;;;;;;;2.65;1.15;;;11.20;99.90;;;;;;5113258;28;20557;-59
2022/12/29 02:37:57;;;;;;;4.68;1.42;;;11.10;99.90;;;;;;5113475;28;20179;-57
2022/12/29 02:41:02;;;;;;;4.85;1.27;;;11.20;99.90;;;;;;5113609;28;20176;-59
2022/12/29 02:43:39;;;;;;;3.13;1.10;;;11.10;99.90;;;;;;5135325;27;20236;-59
2022/12/29 02:46:17;;;;;;;2.40;1.20;;;11.10;99.90;;;;;;5113353;28;20642;-59
2022/12/29 02:48:54;;;;;;;3.88;1.20;;;11.20;99.90;;;;;;5113489;28;20218;-57
2022/12/29 02:52:00;;;;;;;4.68;1.40;;;11.10;99.90;;;;;;5113304;28;20710;-59
2022/12/29 02:54:41;;;;;;;2.67;1.20;;;11.10;99.90;;;;;;5071721;28;20201;-59
2022/12/29 02:57:22;;;;;;;2.25;1.05;;;11.10;99.90;;;;;;5113483;28;20197;-60
2022/12/29 03:00:03;;;;;;;3.03;1.20;;;11.00;99.90;;;;;;5113215;28;20644;-59
2022/12/29 03:02:57;;;;;;;4.22;1.23;;;11.00;99.90;;;;;;5113474;28;20174;-59
2022/12/29 03:05:29;;;;;;;2.65;1.38;;;10.90;99.90;;;;;;5113236;28;20177;-59
2022/12/29 03:08:17;;;;;;;5.80;1.25;;;10.80;99.90;;;;;;5113194;28;20210;-59
2022/12/29 03:10:54;;;;;;;4.35;1.40;;;10.60;99.90;;;;;;5113407;28;20173;-59
2022/12/29 03:16:39;;;;;;;3.78;1.42;;;10.70;99.90;;;;;;5113056;28;20262;-58
2022/12/29 03:19:28;;;;;;;5.72;1.50;;;10.70;99.90;;;;;;5115760;28;20176;-58
2022/12/29 03:24:58;;;;;;;3.65;1.17;;;10.60;99.90;;;;;;5116880;28;20264;-59
2022/12/29 03:27:34;;;;;;;5.47;1.50;;;10.60;99.90;;;;;;5116882;28;20190;-59
2022/12/29 03:30:03;;;;;;;6.35;1.35;;;10.60;99.90;;;;;;5116690;28;20173;-59
2022/12/29 03:32:34;;;;;;;4.07;1.52;;;10.60;99.90;;;;;;5116529;28;20169;-59
2022/12/29 03:35:01;;;;;;;4.40;1.40;;;10.50;99.90;;;;;;5116413;28;20538;-59
2022/12/29 03:37:37;;;;;;;5.95;1.30;;;10.40;99.90;;;;;;5115057;28;20181;-59
2022/12/29 03:40:04;;;;;;;5.90;1.80;;;10.40;99.90;;;;;;5116652;28;20173;-58
2022/12/29 03:42:33;;;;;;;3.83;1.33;;;10.40;99.90;;;;;;5115223;28;20271;-58
2022/12/29 03:44:59;;;;;;;3.38;1.33;;;10.50;99.90;;;;;;5116237;28;20595;-58
2022/12/29 03:47:25;;;;;;;4.35;1.50;;;10.40;99.90;;;;;;5116293;28;20165;-58
2022/12/29 03:49:51;;;;;;;3.30;1.25;;;10.30;99.90;;;;;;5116105;27;20588;-58
2022/12/29 03:52:18;;;;;;;8.13;1.90;;;10.30;99.90;;;;;;5116667;28;20181;-58
2022/12/29 03:54:43;;;;;;;3.75;1.38;;;10.40;99.90;;;;;;5116214;28;20276;-59
2022/12/29 03:57:10;;;;;;;5.97;1.63;;;10.30;99.90;;;;;;5116150;28;20237;-58
2022/12/29 03:59:35;;;;;;;6.18;1.65;;;10.30;99.90;;;;;;5116112;28;20196;-58
2022/12/29 04:02:01;;;;;;;3.95;1.50;;;10.30;99.90;;;;;;5116093;28;20634;-58
2022/12/29 04:04:27;;;;;;;5.50;1.60;;;10.30;99.90;;;;;;5115886;28;20180;-58
2022/12/29 04:06:53;;;;;;;6.38;1.85;;;10.20;99.90;;;;;;5116089;28;20170;-58
2022/12/29 04:09:18;;;;;;;5.18;1.70;;;10.30;99.90;;;;;;5116044;28;20175;-58
2022/12/29 04:11:44;;;;;;;5.80;1.90;;;10.20;99.90;;;;;;5115785;28;20272;-58
2022/12/29 04:14:10;;;;;;;4.43;1.70;;;10.10;99.90;;;;;;5114648;28;20534;-58
2022/12/29 04:16:38;;;;;;;4.63;1.83;;;10.00;99.90;;;;;;5115763;28;20184;-59
2022/12/29 04:19:04;;;;;;;7.07;1.80;;;10.10;99.90;;;;;;5115546;28;20200;-59
2022/12/29 04:21:30;;;;;;;5.32;1.75;;;10.10;99.90;;;;;;5115850;28;20177;-58
2022/12/29 04:23:56;;;;;;;7.40;1.92;;;10.10;99.90;;;;;;5114452;28;20229;-59
2022/12/29 04:26:25;;;;;;;5.28;1.75;;;10.20;99.90;;;;;;5115605;28;20177;-59
2022/12/29 04:28:50;;;;;;;5.97;1.90;;;10.30;99.90;;;;;;5114832;28;20180;-58
2022/12/29 04:31:16;;;;;;;7.25;2.10;;;10.30;99.90;;;;;;5115369;28;20174;-58
2022/12/29 04:33:45;;;;;;;4.90;1.92;;;10.40;99.90;;;;;;5115279;28;20201;-58
2022/12/29 04:36:10;;;;;;;7.50;2.30;;;10.50;99.90;;;;;;5115421;28;20288;-59
2022/12/29 04:38:36;;;;;;;6.70;2.03;;;10.50;99.90;;;;;;5115417;28;20656;-58
2022/12/29 04:41:02;;;;;;;6.10;1.85;;;10.50;99.90;;;;;;5115142;28;20177;-59
2022/12/29 04:43:31;;;;;;;6.30;1.98;;;10.60;99.90;;;;;;5115386;28;20552;-59
2022/12/29 04:45:57;;;;;;;6.00;1.92;;;10.50;99.90;;;;;;5115479;28;20192;-59
2022/12/29 04:48:22;;;;;;;4.50;1.67;;;10.40;99.90;;;;;;5113716;28;20276;-59
2022/12/29 04:50:49;;;;;;;5.80;1.73;;;10.50;99.90;;;;;;5115329;28;20275;-59
2022/12/29 04:53:16;;;;;;;4.68;1.70;;;10.60;99.90;;;;;;5115045;28;20622;-58
2022/12/29 04:55:42;;;;;;;4.53;1.45;;;10.60;99.90;;;;;;5114826;28;20707;-58
2022/12/29 04:58:08;;;;;;;5.00;1.50;;;10.60;99.90;;;;;;5114887;28;20169;-59
2022/12/29 05:00:33;;;;;;;4.05;1.50;;;10.60;99.90;;;;;;5114808;28;20261;-59
2022/12/29 05:03:00;;;;;;;5.43;1.70;;;10.50;99.90;;;;;;5114630;28;20214;-58
2022/12/29 05:05:25;;;;;;;7.00;1.70;;;10.50;99.90;;;;;;5114606;28;20190;-58
2022/12/29 05:07:51;;;;;;;6.22;1.70;;;10.50;99.90;;;;;;5113640;28;20177;-58
2022/12/29 05:10:17;;;;;;;4.40;1.58;;;10.60;99.90;;;;;;5114744;28;20242;-58
2022/12/29 05:12:43;;;;;;;4.50;1.20;;;10.60;99.90;;;;;;5114686;28;20205;-58
2022/12/29 05:15:10;;;;;;;4.68;1.63;;;10.50;99.90;;;;;;5114468;28;20562;-58
2022/12/29 05:17:36;;;;;;;4.75;1.70;;;10.50;99.90;;;;;;5114477;28;20269;-58
2022/12/29 05:20:04;;;;;;;4.50;1.45;;;10.40;99.90;;;;;;5114637;28;20169;-58
2022/12/29 05:22:30;;;;;;;4.80;1.58;;;10.50;99.90;;;;;;5114400;28;20248;-58
2022/12/29 05:24:55;;;;;;;4.65;1.55;;;10.50;99.90;;;;;;5114394;28;20265;-59
2022/12/29 05:27:24;;;;;;;5.10;1.58;;;10.40;99.90;;;;;;5114362;28;20180;-58
2022/12/29 05:29:50;;;;;;;3.38;1.50;;;10.40;99.90;;;;;;5114197;28;20209;-58
2022/12/29 05:32:16;;;;;;;5.85;1.92;;;10.40;99.90;;;;;;5114201;28;20200;-58
2022/12/29 05:34:41;;;;;;;4.07;1.40;;;10.40;99.90;;;;;;5114329;28;20640;-58
2022/12/29 05:37:07;;;;;;;5.15;1.83;;;10.40;99.90;;;;;;5114561;28;20241;-58
2022/12/29 05:39:32;;;;;;;8.68;1.80;;;10.50;99.90;;;;;;5113960;28;20174;-58
2022/12/29 05:41:58;;;;;;;3.75;1.73;;;10.40;99.90;;;;;;5111947;28;20323;-58
2022/12/29 05:44:24;;;;;;;6.60;1.67;;;10.40;99.90;;;;;;5112617;28;20579;-58
2022/12/29 05:46:49;;;;;;;5.20;1.50;;;10.50;99.90;;;;;;5114319;28;20685;-58
2022/12/29 05:49:18;;;;;;;6.43;1.85;;;10.50;99.90;;;;;;5114121;28;20172;-58
2022/12/29 05:51:43;;;;;;;4.57;1.52;;;10.40;99.90;;;;;;5113002;28;20701;-59
2022/12/29 05:54:09;;;;;;;7.85;1.90;;;10.40;99.90;;;;;;5113941;28;20292;-59
2022/12/29 05:56:35;;;;;;;7.03;2.25;;;10.40;99.90;;;;;;5113909;28;20260;-58
2022/12/29 05:59:00;;;;;;;6.95;1.77;;;10.50;99.90;;;;;;5113725;28;20177;-58
2022/12/29 06:01:26;;;;;;;8.95;2.00;;;10.50;99.90;;;;;;5113926;28;20181;-58
2022/12/29 06:03:52;;;;;;;7.25;1.70;;;10.50;99.90;;;;;;5113939;28;20242;-58
2022/12/29 06:06:18;;;;;;;5.97;1.92;;;10.50;99.90;;;;;;5114098;28;20560;-58
2022/12/29 06:08:43;;;;;;;5.65;1.90;;;10.60;99.90;;;;;;5113757;28;20713;-59
2022/12/29 06:11:09;;;;;;;8.88;2.30;;;10.60;99.90;;;;;;5113677;28;20201;-58
2022/12/29 06:13:35;;;;;;;8.02;2.22;;;10.60;99.90;;;;;;5113631;28;20587;-59
2022/12/29 06:16:01;;;;;;;7.70;2.10;;;10.50;99.90;;;;;;5113465;28;20209;-58
2022/12/29 06:18:26;;;;;;;6.50;1.88;;;10.50;99.90;;;;;;5113796;28;20177;-58
2022/12/29 06:20:52;;;;;;;6.40;1.85;;;10.60;99.90;;;;;;5113698;28;20176;-58
2022/12/29 06:23:18;;;;;;;8.20;2.15;;;10.60;99.90;;;;;;5113898;28;20184;-58
2022/12/29 06:25:44;;;;;;;6.55;2.13;;;10.60;99.90;;;;;;5113474;28;20646;-58
2022/12/29 06:28:10;;;;;;;5.30;2.10;;;10.60;99.90;;;;;;5113484;28;20173;-58
2022/12/29 06:30:36;;;;;;;5.75;2.25;;;10.50;99.90;;;;;;5113701;28;20193;-58
2022/12/29 06:33:02;;;;;;;7.75;2.25;;;10.50;99.90;;;;;;5113656;28;20668;-58
2022/12/29 06:35:28;;;;;;;6.80;2.17;;;10.50;99.90;;;;;;5113514;28;20237;-58
2022/12/29 06:37:54;;;;;;;8.18;2.38;;;10.60;99.90;;;;;;5113499;28;20181;-58
2022/12/29 06:40:21;;;;;;;7.35;2.17;;;10.50;99.90;;;;;;5113485;28;20595;-59
2022/12/29 06:42:47;;;;;;;6.38;2.13;;;10.50;99.90;;;;;;5113119;28;20188;-58
2022/12/29 06:45:12;;;;;;;7.00;2.53;;;10.50;99.90;;;;;;5112451;28;20526;-58
2022/12/29 06:47:38;;;;;;;9.40;2.33;;;10.60;99.90;;;;;;5113317;28;20633;-58
2022/12/29 06:50:04;;;;;;;9.32;2.42;;;10.60;99.90;;;;;;5113256;28;20248;-58
2022/12/29 06:52:30;;;;;;;9.48;2.30;;;10.60;99.90;;;;;;5115116;28;20261;-58
2022/12/29 06:54:55;;;;;;;6.72;2.35;;;10.60;99.90;;;;;;5117214;28;20276;-59
2022/12/29 06:57:21;;;;;;;8.82;2.30;;;10.60;99.90;;;;;;5116859;28;20181;-58
2022/12/29 06:59:47;;;;;;;7.97;2.53;;;10.60;99.90;;;;;;5116061;28;20174;-58
2022/12/29 07:02:18;;;;;;;11.07;2.80;;;10.60;99.90;;;;;;5115628;28;20222;-58
2022/12/29 07:04:43;;;;;;;8.60;2.55;;;10.60;99.90;;;;;;5116936;28;20188;-59
2022/12/29 07:07:09;;;;;;;8.20;2.80;;;10.60;99.90;;;;;;5117069;28;20634;-58
2022/12/29 07:09:35;;;;;;;7.43;2.53;;;10.60;99.90;;;;;;5117069;28;20173;-58
2022/12/29 07:12:00;;;;;;;7.97;2.60;;;10.60;99.90;;;;;;5117151;28;20174;-58
2022/12/29 07:14:29;;;;;;;10.15;2.75;;;10.60;99.90;;;;;;5113793;28;20185;-58
2022/12/29 07:16:55;;;;;;;9.27;3.00;;;10.50;99.90;;;;;;5115701;28;20185;-58
2022/12/29 07:19:20;;;;;;;10.82;2.80;;;10.50;99.90;;;;;;5116626;28;20239;-58
2022/12/29 07:21:46;;;;;;;6.43;2.17;;;10.40;99.90;;;;;;5116417;28;20174;-59
2022/12/29 07:24:12;;;;;;;8.80;2.50;;;10.40;99.90;;;;;;5116314;28;20192;-58
2022/12/29 07:26:37;;;;;;;10.02;3.08;;;10.40;99.90;;;;;;5116267;28;20618;-58
2022/12/29 07:29:04;;;;;;;7.68;2.33;;;10.50;99.90;;;;;;5116243;28;20183;-58
2022/12/29 07:31:29;;;;;;;6.95;2.75;;;10.50;99.90;;;;;;5098188;28;20173;-58
2022/12/29 07:33:55;;;;;;;7.43;2.28;;;10.60;99.90;;;;;;5116137;28;20222;-58
2022/12/29 07:36:21;;;;;;;7.50;2.55;;;10.60;99.90;;;;;;5116498;28;20205;-59
2022/12/29 07:38:46;;;;;;;7.47;2.58;;;10.60;99.90;;;;;;5114314;28;20272;-58
2022/12/29 07:41:12;;;;;;;10.75;2.72;;;10.60;99.90;;;;;;5116390;28;20179;-58
2022/12/29 07:43:38;;;;;;;10.63;2.53;;;10.60;99.90;;;;;;5116579;28;20249;-58
2022/12/29 07:46:03;;;;;;;7.00;2.33;;;10.70;99.90;;;;;;5116500;28;20257;-58
2022/12/29 07:48:29;;;;;;;9.13;2.60;;;10.70;99.90;;;;;;5116385;28;20185;-58
2022/12/29 07:50:55;;;;;;;9.95;2.83;;;10.80;99.90;;;;;;5116241;28;20177;-58
2022/12/29 07:53:20;;;;;;;10.40;2.95;;;10.80;99.90;;;;;;5114984;28;20178;-58
2022/12/29 07:55:46;;;;;;;8.98;2.58;;;10.70;99.90;;;;;;5115948;28;20681;-58
2022/12/29 07:58:12;;;;;;;10.55;2.78;;;10.70;99.90;;;;;;5115818;28;20252;-58
2022/12/29 08:00:38;;;;;;;11.57;2.63;;;10.80;99.90;;;;;;5115567;28;20242;-58
2022/12/29 08:03:05;;;;;;;9.90;2.97;;;10.80;99.90;;;;;;5115425;28;20177;-58
2022/12/29 08:05:32;;;;;;;10.32;2.80;;;10.80;99.90;;;;;;5115546;28;20201;-58
2022/12/29 08:07:58;;;;;;;10.88;2.83;;;10.70;99.90;;;;;;5116147;28;20173;-58
2022/12/29 08:10:23;;;;;;;12.90;2.97;;;10.80;99.90;;;;;;5115898;28;20178;-58
2022/12/29 08:12:49;;;;;;;9.10;2.90;;;10.80;99.90;;;;;;5116064;28;20204;-58
2022/12/29 08:15:15;;;;;;;8.35;2.50;;;10.80;99.90;;;;;;5116055;28;20189;-58
2022/12/29 08:17:40;;;;;;;8.85;2.88;;;10.80;99.90;;;;;;5115873;28;20192;-58
2022/12/29 08:20:07;;;;;;;12.27;2.67;;;10.80;99.90;;;;;;5115751;28;20234;-58
2022/12/29 08:22:33;;;;;;;11.30;3.05;;;10.80;99.90;;;;;;5115689;28;20180;-58
2022/12/29 08:24:58;;;;;;;11.38;3.00;;;10.70;99.90;;;;;;5115551;28;20174;-58
2022/12/29 08:27:25;;;;;;;8.02;2.65;;;10.80;99.90;;;;;;5115729;28;20173;-58
2022/12/29 08:29:51;;;;;;;9.73;2.50;;;10.60;99.90;;;;;;5115458;28;20610;-58
2022/12/29 08:32:16;;;;;;;8.07;2.70;;;10.60;99.90;;;;;;5115484;28;20181;-58
2022/12/29 08:34:42;;;;;;;8.38;2.33;;;10.70;99.90;;;;;;5115168;28;20201;-58
2022/12/29 08:37:08;;;;;;;12.43;3.15;;;10.70;99.90;;;;;;5115358;28;20181;-58
2022/12/29 08:39:34;;;;;;;7.13;2.85;;;10.60;99.90;;;;;;5115269;28;20649;-58
2022/12/29 08:41:59;;;;;;;8.23;2.75;;;10.60;99.90;;;;;;5114187;28;20300;-58
2022/12/29 08:44:25;;;;;;;10.48;2.83;;;10.60;99.90;;;;;;5115264;28;20302;-58
2022/12/29 08:46:51;;;;;;;8.05;2.88;;;10.50;99.90;;;;;;5115453;28;20170;-58
2022/12/29 08:49:16;;;;;;;12.20;3.17;;;10.50;99.90;;;;;;5113915;28;20184;-58
2022/12/29 08:51:42;;;;;;;7.90;2.50;;;10.40;99.90;;;;;;5115187;28;20173;-58
2022/12/29 08:54:08;;;;;;;9.93;2.75;;;10.30;99.90;;;;;;5114891;28;20170;-59
2022/12/29 08:56:33;;;;;;;7.10;2.67;;;10.30;99.90;;;;;;5114759;28;20684;-58
2022/12/29 08:58:59;;;;;;;6.72;2.72;;;10.20;99.90;;;;;;5114872;28;20177;-58
2022/12/29 09:01:25;;;;;;;7.32;2.70;;;10.20;99.90;;;;;;5114775;28;20252;-58
2022/12/29 09:03:50;;;;;;;10.48;3.00;;;10.30;99.90;;;;;;5114990;28;20197;-58
2022/12/29 09:06:17;;;;;;;10.50;3.10;;;10.30;99.90;;;;;;5114767;28;20181;-58
2022/12/29 09:08:43;;;;;;;8.15;2.88;;;10.30;99.90;;;;;;5114541;28;20181;-58
2022/12/29 09:11:18;;;;;;;9.85;3.20;;;10.30;99.90;;;;;;5114904;28;20177;-59
2022/12/29 09:13:45;;;;;;;9.32;3.13;;;10.30;99.90;;;;;;5114695;28;20165;-58
2022/12/29 09:16:14;;;;;;;10.85;2.78;;;10.10;99.90;;;;;;5114361;28;20258;-58
2022/12/29 09:18:40;;;;;;;9.40;3.30;;;10.10;99.90;;;;;;5114559;28;20173;-58
2022/12/29 09:21:07;;;;;;;8.10;2.95;;;10.30;99.90;;;;;;5114426;28;20181;-58
2022/12/29 09:23:33;;;;;;;8.60;3.20;;;10.30;99.90;;;;;;5114337;28;20197;-58
2022/12/29 09:25:59;;;;;;;8.70;3.13;;;10.20;99.90;;;;;;5114587;28;20169;-58
2022/12/29 09:28:26;;;;;;;8.15;3.00;;;10.20;99.90;;;;;;5114441;28;20184;-58
2022/12/29 09:30:55;;;;;;;11.45;3.10;;;10.20;99.90;;;;;;5114469;28;20180;-58
2022/12/29 09:33:20;;;;;;;10.25;3.22;;;10.10;99.90;;;;;;5114288;28;20170;-59
2022/12/29 09:35:57;;;;;;;12.07;3.50;;;10.20;99.90;;;;;;5114053;28;20204;-58
2022/12/29 09:38:24;;;;;;;9.30;2.80;;;10.30;99.90;;;;;;5114486;28;20180;-58
2022/12/29 09:40:56;;;;;;;8.32;2.55;;;10.40;99.90;;;;;;5114328;28;20177;-58
2022/12/29 09:43:52;;;;;;;10.75;3.25;;;10.30;99.90;;;;;;5114294;28;20173;-58
2022/12/29 09:46:27;;;;;;;10.40;3.20;;;10.20;99.90;;;;;;5114092;28;20521;-58
2022/12/29 09:49:24;;;;;;;13.10;3.63;;;10.00;99.90;;;;;;5114232;28;20640;-58
2022/12/29 09:51:53;;;;;;;7.13;2.72;;;10.00;99.90;;;;;;5114049;28;20177;-58
2022/12/29 09:54:50;;;;;;;12.68;3.42;;;10.00;99.90;;;;;;5113964;28;20168;-58
2022/12/29 09:57:32;;;;;;;13.63;3.70;;;10.10;99.90;;;;;;5114230;28;20165;-58
2022/12/29 10:00:06;;;;;;;12.82;4.13;;;10.00;99.90;;;;;;5114316;28;20193;-58
2022/12/29 10:02:42;;;;;;;12.73;3.67;;;10.00;99.90;;;;;;5113877;28;20164;-58
2022/12/29 10:05:25;;;;;;;11.95;3.53;;;10.00;99.90;;;;;;5113719;28;20172;-59
2022/12/29 10:08:09;;;;;;;14.85;4.30;;;10.00;99.90;;;;;;5113795;28;20226;-58
2022/12/29 10:10:43;;;;;;;9.88;3.47;;;10.00;99.90;;;;;;5113741;28;20173;-58
2022/12/29 10:13:55;;;;;;;13.02;4.15;;;9.90;99.90;;;;;;5113663;28;20173;-58
2022/12/29 10:16:33;;;;;;;15.73;3.72;;;10.00;99.90;;;;;;5050693;28;20210;-58
2022/12/29 10:19:16;;;;;;;15.13;3.75;;;9.80;99.90;;;;;;5050893;28;20749;-58
2022/12/29 10:22:19;;;;;;;15.88;4.30;;;9.80;99.90;;;;;;5096237;28;20181;-58
2022/12/29 10:24:48;;;;;;;11.60;3.40;;;10.00;99.90;;;;;;5113643;28;20169;-59
2022/12/29 10:27:16;;;;;;;13.77;3.78;;;10.10;99.90;;;;;;5115028;28;20169;-58
2022/12/29 10:30:02;;;;;;;13.55;3.55;;;10.10;99.90;;;;;;5117884;28;20172;-58
2022/12/29 10:32:34;;;;;;;13.75;3.90;;;10.10;99.90;;;;;;5117709;28;20167;-58
2022/12/29 10:35:15;;;;;;;10.30;3.50;;;10.30;99.90;;;;;;5118209;28;20258;-58
2022/12/29 10:38:03;;;;;;;11.65;3.55;;;10.30;99.90;;;;;;5117831;28;20173;-58
2022/12/29 10:40:38;;;;;;;13.48;3.72;;;10.40;99.90;;;;;;5117392;28;20165;-58
2022/12/29 10:43:24;;;;;;;12.25;3.20;;;10.30;99.90;;;;;;5117878;28;20184;-58
2022/12/29 10:45:50;;;;;;;12.82;3.67;;;10.20;99.90;;;;;;5117504;28;20534;-58
2022/12/29 10:48:22;;;;;;;17.15;4.03;;;10.30;99.90;;;;;;5117631;28;20196;-58
2022/12/29 10:50:50;;;;;;;12.77;3.72;;;10.40;99.90;;;;;;5117333;28;20174;-58
2022/12/29 10:53:25;;;;;;;14.82;3.58;;;10.40;99.90;;;;;;5117551;28;20634;-58
2022/12/29 10:55:52;;;;;;;10.95;3.63;;;10.40;99.90;;;;;;5117423;28;20661;-58
2022/12/29 10:58:19;;;;;;;9.70;3.58;;;10.40;99.90;;;;;;5117415;28;20173;-58
2022/12/29 11:00:53;;;;;;;14.50;3.88;;;10.30;99.90;;;;;;5117291;28;20649;-58
2022/12/29 11:03:34;;;;;;;11.80;3.38;;;10.20;99.90;;;;;;5117150;28;20165;-58
2022/12/29 11:06:10;;;;;;;12.88;3.70;;;10.20;99.90;;;;;;5117164;28;20222;-58
2022/12/29 11:08:46;;;;;;;10.57;2.97;;;10.30;99.90;;;;;;5117219;28;20162;-58
2022/12/29 11:11:14;;;;;;;11.93;3.28;;;10.20;99.90;;;;;;5116965;28;20172;-58
2022/12/29 11:13:49;;;;;;;12.80;3.70;;;10.20;99.90;;;;;;5116946;28;20275;-58
2022/12/29 11:16:15;;;;;;;9.90;3.20;;;10.20;99.90;;;;;;5116978;28;20197;-58
2022/12/29 11:18:42;;;;;;;7.43;2.83;;;10.30;99.90;;;;;;5117106;28;20177;-58
2022/12/29 11:21:41;;;;;;;10.25;2.72;;;10.40;99.90;;;;;;5117036;27;20314;-58
2022/12/29 11:24:28;;;;;;;10.88;2.60;;;10.40;99.90;;;;;;5116690;28;20179;-59
2022/12/29 11:27:13;;;;;;;8.73;2.95;;;10.50;99.90;;;;;;5116749;28;20264;-58
2022/12/29 11:29:41;;;;;;;7.50;2.38;;;10.50;99.90;;;;;;5116925;28;20549;-58
2022/12/29 11:32:26;;;;;;;7.85;3.08;;;10.70;99.90;;;;;;5116696;28;20173;-59
2022/12/29 11:34:52;;;;;;;9.23;2.80;;;10.60;99.90;;;;;;5116879;28;20661;-58
2022/12/29 11:37:18;;;;;;;10.43;2.78;;;10.60;99.90;;;;;;5116480;28;20235;-58
2022/12/29 11:40:04;;;;;;;9.50;2.83;;;10.60;99.90;;;;;;5116547;28;20213;-59
2022/12/29 11:42:37;;;;;;;8.38;2.33;;;10.60;99.90;;;;;;5116318;28;20181;-58
2022/12/29 11:45:24;;;;;;;7.55;2.65;;;10.80;99.90;;;;;;5116387;28;20185;-58
2022/12/29 11:47:57;;;;;;;8.63;2.78;;;10.80;99.90;;;;;;5116473;28;20176;-58
2022/12/29 11:50:30;;;;;;;9.23;2.88;;;10.90;99.90;;;;;;5116235;27;20191;-58
2022/12/29 11:53:13;;;;;;;6.47;1.90;;;10.80;99.90;;;;;;5116379;28;20687;-58
2022/12/29 11:55:39;;;;;;;8.27;2.85;;;10.90;99.90;;;;;;5116079;28;20209;-58
2022/12/29 11:58:06;;;;;;;7.88;2.80;;;10.80;99.90;;;;;;5116279;28;20530;-58
2022/12/29 12:00:36;;;;;;;8.57;2.70;;;10.80;99.90;;;;;;5116230;28;20617;-58
2022/12/29 12:03:24;;;;;;;9.02;2.97;;;11.00;99.90;;;;;;5116194;28;20162;-58
2022/12/29 12:06:00;;;;;;;7.63;3.17;;;11.00;99.90;;;;;;5115962;28;20233;-58
2022/12/29 12:08:59;;;;;;;8.48;2.55;;;10.80;99.90;;;;;;5116104;28;20552;-58
2022/12/29 12:11:36;;;;;;;8.80;2.80;;;10.80;99.90;;;;;;5115807;28;20703;-58
2022/12/29 12:14:25;;;;;;;9.57;2.80;;;10.80;99.90;;;;;;5115918;28;20172;-58
2022/12/29 12:16:55;;;;;;;10.38;3.00;;;10.90;99.90;;;;;;5116195;28;20528;-58
2022/12/29 12:19:52;;;;;;;11.40;2.78;;;10.60;99.90;;;;;;5115865;28;20170;-58
2022/12/29 12:22:32;;;;;;;12.23;3.05;;;10.70;99.90;;;;;;5115116;28;20241;-58
2022/12/29 12:25:12;;;;;;;11.80;3.17;;;10.60;99.90;;;;;;5115766;28;20181;-58
2022/12/29 12:28:10;;;;;;;12.98;3.28;;;10.40;99.90;;;;;;5115742;28;20179;-58
2022/12/29 12:30:46;;;;;;;14.88;3.28;;;10.50;99.90;;;;;;5115475;28;20173;-58
2022/12/29 12:33:22;;;;;;;9.38;3.35;;;10.30;99.90;;;;;;5115626;28;20203;-58
2022/12/29 12:35:56;;;;;;;10.45;3.63;;;10.40;99.90;;;;;;5115517;28;20243;-58
2022/12/29 12:38:36;;;;;;;11.00;3.40;;;10.40;99.90;;;;;;5115316;28;20202;-59
2022/12/29 12:41:05;;;;;;;9.60;3.10;;;10.50;99.90;;;;;;5115411;28;20204;-58
2022/12/29 12:43:44;;;;;;;9.65;2.80;;;10.40;99.90;;;;;;5114950;28;20221;-58
2022/12/29 12:46:20;;;;;;;11.00;3.42;;;10.40;99.90;;;;;;5115186;28;20219;-58
2022/12/29 12:49:07;;;;;;;11.90;3.47;;;10.40;99.90;;;;;;5115112;28;20504;-58
2022/12/29 12:51:45;;;;;;;11.52;3.20;;;10.30;99.90;;;;;;5114803;28;20741;-59
2022/12/29 12:54:35;;;;;;;8.98;3.17;;;10.40;99.90;;;;;;5115255;28;20169;-58
2022/12/29 12:57:26;;;;;;;10.45;3.42;;;10.30;99.90;;;;;;5115138;28;20181;-58
2022/12/29 13:00:04;;;;;;;12.20;2.72;;;10.30;99.90;;;;;;5114904;28;20173;-58
2022/12/29 13:03:11;;;;;;;8.48;2.60;;;10.20;99.90;;;;;;5114890;28;20180;-58
2022/12/29 13:05:54;;;;;;;7.85;2.38;;;10.40;99.90;;;;;;5090954;28;20192;-59
2022/12/29 13:09:01;;;;;;;5.97;1.95;;;10.50;99.90;;;;;;5114638;28;20526;-59
2022/12/29 13:12:05;;;;;;;6.20;1.85;;;10.50;99.90;;;;;;5115028;28;20187;-58
2022/12/29 13:14:55;;;;;;;8.13;4.65;;;10.40;99.90;;;;;;5090531;28;20215;-58
2022/12/29 13:17:36;;;;;;;5.07;2.30;;;10.50;99.90;;;;;;5114746;28;20519;-59
2022/12/29 13:20:26;;;;;;;8.20;2.38;;;10.40;99.90;;;;;;5114631;28;20161;-58
2022/12/29 13:23:09;;;;;;;8.63;2.20;;;10.20;99.90;;;;;;5114480;28;20168;-58
2022/12/29 13:26:02;;;;;;;5.78;1.95;;;10.00;99.90;;;;;;5114731;28;20165;-58
2022/12/29 13:28:45;;;;;;;6.20;2.13;;;10.00;99.90;;;;;;5114470;28;20572;-58
2022/12/29 13:31:24;;;;;;;7.47;2.40;;;10.00;99.90;;;;;;5114396;28;20197;-58
2022/12/29 13:34:15;;;;;;;8.05;2.20;;;10.10;99.90;;;;;;5114575;28;20205;-58
2022/12/29 13:36:51;;;;;;;4.18;1.80;;;10.30;99.90;;;;;;5114474;28;20201;-58
2022/12/29 13:39:36;;;;;;;6.32;2.08;;;10.30;99.90;;;;;;5114319;28;20168;-58
2022/12/29 13:42:04;;;;;;;8.75;2.30;;;10.30;99.90;;;;;;5114410;28;20174;-58
2022/12/29 13:44:45;;;;;;;7.57;2.25;;;10.30;99.90;;;;;;5113895;28;20201;-58